Time;durP1;ratioP1;P1;durP2;ratioP2;P2;SDS_P1;SDS_P2;PMS_P1;PMS_P2;Temp;Humidity;BMP_temperature;BMP_pressure;BME280_temperature;BME280_humidity;BME280_pressure;Samples;Min_cycle;Max_cycle;Signal;HPM_P1;HPM_P2
2022/06/17 00:04:59;;;;;;;9.73;3.60;;;;;;;11.70;nan;98781.25;10323642;28;20517;-72
2022/06/17 00:10:01;;;;;;;10.95;3.75;;;;;;;11.64;nan;98771.75;10321224;28;20052;-71
2022/06/17 00:15:12;;;;;;;10.85;4.10;;;;;;;11.72;nan;98794.34;10322884;28;20062;-71
2022/06/17 00:20:18;;;;;;;8.63;4.18;;;;;;;11.64;nan;98770.91;10321323;28;20079;-72
2022/06/17 00:25:25;;;;;;;7.88;4.25;;;;;;;11.50;nan;98721.38;10323159;28;20050;-71
2022/06/17 00:30:32;;;;;;;19.20;4.55;;;;;;;11.42;nan;98694.44;10321638;28;20081;-72
2022/06/17 00:35:40;;;;;;;10.57;4.72;;;;;;;11.36;nan;98684.94;10322817;28;20057;-72
2022/06/17 00:40:44;;;;;;;10.05;4.57;;;;;;;11.38;nan;98700.63;10304005;28;20046;-72
2022/06/17 00:46:08;;;;;;;10.32;5.05;;;;;;;11.40;nan;98712.81;10322338;28;20054;-72
2022/06/17 00:51:16;;;;;;;9.95;5.47;;;;;;;11.34;nan;98684.09;10321334;28;20049;-72
2022/06/17 00:56:24;;;;;;;9.55;5.25;;;;;;;11.30;nan;98682.44;10304720;28;20054;-72
2022/06/17 01:01:29;;;;;;;13.50;5.82;;;;;;;11.25;nan;98669.44;10303539;28;20054;-72
2022/06/17 01:06:37;;;;;;;9.75;4.80;;;;;;;11.14;nan;98638.22;10304174;28;20543;-72
2022/06/17 01:11:41;;;;;;;13.60;5.47;;;;;;;11.09;nan;98613.88;10338202;28;20046;-72
2022/06/17 01:16:44;;;;;;;11.52;5.30;;;;;;;11.13;nan;98633.84;10303655;28;20049;-72
2022/06/17 01:22:06;;;;;;;11.10;4.93;;;;;;;11.01;nan;98600.06;10302507;28;20077;-73
2022/06/17 01:27:08;;;;;;;9.20;5.35;;;;;;;10.91;nan;98567.97;10320623;28;20042;-73
2022/06/17 01:32:10;;;;;;;9.93;5.03;;;;;;;10.90;nan;98562.72;10309859;28;20039;-72
2022/06/17 01:37:13;;;;;;;8.60;4.70;;;;;;;10.87;nan;98552.31;10303363;28;20143;-73
2022/06/17 01:42:15;;;;;;;9.88;5.45;;;;;;;10.77;nan;98525.47;10303025;28;20104;-73
2022/06/17 01:47:21;;;;;;;10.93;5.65;;;;;;;10.71;nan;98499.44;10319871;28;20134;-73
2022/06/17 01:52:28;;;;;;;10.27;5.18;;;;;;;10.63;nan;98477.75;10308276;28;20050;-72
2022/06/17 01:57:37;;;;;;;10.47;5.27;;;;;;;10.55;nan;98452.63;10301067;28;20039;-72
2022/06/17 02:02:43;;;;;;;10.07;5.70;;;;;;;10.46;nan;98420.53;10294860;28;20050;-71
2022/06/17 02:07:53;;;;;;;13.02;6.25;;;;;;;10.40;nan;98401.47;10301066;28;20057;-73
2022/06/17 02:12:56;;;;;;;12.35;6.20;;;;;;;10.27;nan;98353.75;10317629;28;20045;-72
2022/06/17 02:18:04;;;;;;;10.90;6.35;;;;;;;10.22;nan;98339.03;10300276;28;20844;-73
2022/06/17 02:23:14;;;;;;;11.52;6.22;;;;;;;10.22;nan;98350.38;10293880;28;20042;-71
2022/06/17 02:28:18;;;;;;;12.30;6.22;;;;;;;10.19;nan;98331.25;10300155;28;20549;-72
2022/06/17 02:33:22;;;;;;;12.25;5.70;;;;;;;10.17;nan;98340.88;10316314;28;20101;-72
2022/06/17 02:38:28;;;;;;;13.02;6.45;;;;;;;10.16;nan;98336.53;10300100;28;20081;-73
2022/06/17 02:43:34;;;;;;;9.73;5.65;;;;;;;10.14;nan;98335.72;10305516;28;20126;-72
2022/06/17 02:48:43;;;;;;;10.52;5.72;;;;;;;10.11;nan;98327.94;10305131;28;20034;-72
2022/06/17 02:53:45;;;;;;;11.05;6.13;;;;;;;9.95;nan;98273.31;10298497;28;20093;-73
2022/06/17 02:59:25;;;;;;;12.65;6.57;;;;;;;9.86;nan;98242.16;10302657;28;20040;-71
2022/06/17 03:04:30;;;;;;;11.02;6.68;;;;;;;9.80;nan;98227.44;10294179;28;20042;-71
2022/06/17 03:09:36;;;;;;;14.25;6.90;;;;;;;9.85;nan;98245.69;10298446;28;20039;-73
2022/06/17 03:14:49;;;;;;;16.13;7.13;;;;;;;9.92;nan;98281.22;10316242;28;20450;-71
2022/06/17 03:19:54;;;;;;;13.95;7.90;;;;;;;9.97;nan;98304.66;10308341;28;20043;-72
2022/06/17 03:25:25;;;;;;;14.35;6.50;;;;;;;9.99;nan;98315.97;10314587;28;20054;-72
2022/06/17 03:30:36;;;;;;;10.77;6.35;;;;;;;10.02;nan;98324.59;10281584;28;20637;-73
2022/06/17 03:35:41;;;;;;;13.13;7.13;;;;;;;10.02;nan;98334.22;10300568;28;20046;-71
2022/06/17 03:40:48;;;;;;;13.00;7.57;;;;;;;9.98;nan;98324.69;10297267;28;20049;-73
2022/06/17 03:45:58;;;;;;;11.63;7.03;;;;;;;9.98;nan;98330.78;10318278;28;20050;-72
2022/06/17 03:51:01;;;;;;;13.05;7.80;;;;;;;10.00;nan;98347.31;10297236;28;20046;-73
2022/06/17 03:56:19;;;;;;;12.68;7.40;;;;;;;10.03;nan;98360.31;10300606;28;20332;-74
2022/06/17 04:01:35;;;;;;;14.35;8.07;;;;;;;10.13;nan;98396.75;10321353;28;20050;-72
2022/06/17 04:06:42;;;;;;;;;;;;;;;10.20;nan;98438.44;10294206;28;20089;-72
2022/06/17 04:11:52;;;;;;;15.68;7.63;;;;;;;10.24;nan;98462.81;10329199;28;20309;-73
2022/06/17 04:17:08;;;;;;;14.27;7.88;;;;;;;10.40;nan;98521.81;10297198;28;20042;-72
2022/06/17 04:22:25;;;;;;;13.52;7.65;;;;;;;10.61;nan;98614.75;10293797;28;20050;-74
2022/06/17 04:27:59;;;;;;;14.82;8.75;;;;;;;10.87;nan;98719.88;10314009;28;20042;-73
2022/06/17 04:33:35;;;;;;;14.15;8.40;;;;;;;11.14;nan;98833.81;10297064;28;20896;-72
2022/06/17 04:38:56;;;;;;;15.40;8.68;;;;;;;11.38;nan;98932.09;10303496;28;20463;-73
2022/06/17 04:44:18;;;;;;;14.10;8.70;;;;;;;11.55;nan;99005.22;10297207;28;20566;-71
2022/06/17 04:49:23;;;;;;;16.30;8.80;;;;;;;11.73;nan;99076.63;10303514;28;20133;-72
2022/06/17 04:54:27;;;;;;;16.58;7.68;;;;;;;11.94;nan;99172.50;10341964;28;20056;-72
2022/06/17 04:59:52;;;;;;;14.68;8.10;;;;;;;12.25;nan;99300.63;10338488;28;20056;-72
2022/06/17 05:04:57;;;;;;;21.75;8.07;;;;;;;12.52;nan;99421.03;10335720;28;20116;-72
2022/06/17 05:10:05;;;;;;;16.95;8.10;;;;;;;12.78;nan;99530.13;10297923;28;20069;-72
2022/06/17 05:15:18;;;;;;;13.90;7.38;;;;;;;13.02;nan;99627.94;10302663;28;20050;-73
2022/06/17 05:20:24;;;;;;;14.27;7.25;;;;;;;13.23;nan;99724.94;10301066;28;20506;-72
2022/06/17 05:25:32;;;;;;;14.30;6.85;;;;;;;13.49;nan;99828.97;10331442;28;20078;-74
2022/06/17 05:30:37;;;;;;;12.90;6.38;;;;;;;13.83;nan;99969.84;10296578;28;20046;-74
2022/06/17 05:35:42;;;;;;;15.32;6.60;;;;;;;14.40;nan;100209.81;10301857;28;20117;-73
2022/06/17 05:40:46;;;;;;;14.07;6.47;;;;;;;15.21;nan;100542.25;10301125;28;20050;-77
2022/06/17 05:45:47;;;;;;;12.73;5.68;;;;;;;15.95;nan;100860.38;10303531;28;20133;-77
2022/06/17 05:51:10;;;;;;;11.05;5.53;;;;;;;16.34;nan;101035.47;10321385;28;20449;-76
2022/06/17 05:56:21;;;;;;;8.88;5.40;;;;;;;16.84;nan;101239.81;10320323;28;20050;-78
2022/06/17 06:01:25;;;;;;;10.68;5.10;;;;;;;17.18;nan;101385.31;10313334;28;20046;-77
2022/06/17 06:06:27;;;;;;;10.27;5.00;;;;;;;17.37;nan;101470.84;10320593;28;20049;-77
2022/06/17 06:11:31;;;;;;;16.67;5.90;;;;;;;17.28;nan;101440.88;10299472;28;20058;-77
2022/06/17 06:16:34;;;;;;;11.10;5.07;;;;;;;17.36;nan;101467.34;10300975;28;20669;-77
2022/06/17 06:21:37;;;;;;;12.63;5.20;;;;;;;17.69;nan;101611.19;10301207;28;20054;-77
2022/06/17 06:26:40;;;;;;;10.43;4.97;;;;;;;18.55;nan;101989.50;10319380;28;20654;-77
2022/06/17 06:32:09;;;;;;;8.85;4.63;;;;;;;19.35;nan;102331.34;10312015;28;20137;-78
2022/06/17 06:37:18;;;;;;;10.43;3.97;;;;;;;19.85;nan;102542.50;10304702;28;20050;-77
2022/06/17 06:42:23;;;;;;;9.38;4.30;;;;;;;19.87;nan;102557.53;10304462;28;20051;-77
2022/06/17 06:47:45;;;;;;;13.35;5.03;;;;;;;19.73;nan;102495.44;10316361;28;20038;-77
2022/06/17 06:52:54;;;;;;;9.77;3.95;;;;;;;19.72;nan;102478.56;10322755;28;20165;-77
2022/06/17 06:57:59;;;;;;;10.75;5.50;;;;;;;19.54;nan;102401.41;10300005;28;20047;-77
2022/06/17 07:03:01;;;;;;;10.98;5.63;;;;;;;19.46;nan;102372.16;10318445;28;20692;-75
2022/06/17 07:08:04;;;;;;;10.10;5.30;;;;;;;19.64;nan;102444.88;10297596;28;20034;-75
2022/06/17 07:13:08;;;;;;;9.00;5.47;;;;;;;19.56;nan;102408.53;10313590;28;20046;-75
2022/06/17 07:18:15;;;;;;;11.20;5.45;;;;;;;19.54;nan;102394.31;10315640;28;20053;-73
2022/06/17 07:23:20;;;;;;;11.90;5.30;;;;;;;19.69;nan;102448.44;10300816;28;20042;-74
2022/06/17 07:28:25;;;;;;;10.07;5.38;;;;;;;19.86;nan;102520.31;10322384;28;20042;-74
2022/06/17 07:33:29;;;;;;;11.63;4.95;;;;;;;19.94;nan;102556.72;10315638;28;20070;-74
2022/06/17 07:43:53;;;;;;;10.02;5.13;;;;;;;20.91;nan;102976.97;10315420;28;20082;-75
2022/06/17 07:48:55;;;;;;;7.32;4.20;;;;;;;20.80;nan;102918.28;10316860;28;20073;-74
2022/06/17 07:53:57;;;;;;;11.10;4.68;;;;;;;20.81;nan;102914.75;10302336;28;20053;-75
2022/06/17 07:58:59;;;;;;;14.20;5.28;;;;;;;21.05;nan;103008.13;10314572;28;20047;-75
2022/06/17 08:04:01;;;;;;;10.68;4.43;;;;;;;21.54;nan;103227.13;10303132;28;20409;-75
2022/06/17 08:09:03;;;;;;;10.52;4.60;;;;;;;21.71;nan;103294.84;10319328;28;20046;-75
2022/06/17 08:14:05;;;;;;;9.88;4.82;;;;;;;21.53;nan;103206.69;10319843;28;20042;-76
2022/06/17 08:19:07;;;;;;;9.18;3.97;;;;;;;21.45;nan;103168.34;10307513;28;20560;-74
2022/06/17 08:24:09;;;;;;;11.85;3.95;;;;;;;21.48;nan;103169.28;10313932;28;20060;-74
2022/06/17 08:29:11;;;;;;;11.95;4.25;;;;;;;21.66;nan;103248.59;10329042;28;20168;-74
2022/06/17 08:34:32;;;;;;;9.07;4.18;;;;;;;21.71;nan;103256.63;10354818;28;20143;-74
2022/06/17 08:39:34;;;;;;;10.07;4.40;;;;;;;21.80;nan;103293.13;10349120;28;20063;-74
2022/06/17 08:45:10;;;;;;;9.80;4.70;;;;;;;21.80;nan;103287.78;10341887;28;20066;-73
2022/06/17 08:50:54;;;;;;;10.10;4.72;;;;;;;22.06;nan;103403.66;10332947;28;20647;-74
2022/06/17 08:56:12;;;;;;;8.55;4.50;;;;;;;22.23;nan;103464.31;10326125;28;20649;-74
2022/06/17 09:01:36;;;;;;;9.33;3.93;;;;;;;22.59;nan;103613.38;10328447;28;20081;-74
2022/06/17 09:07:03;;;;;;;8.52;4.05;;;;;;;23.09;nan;103823.25;10334318;28;20457;-75
2022/06/17 09:12:20;;;;;;;8.45;4.15;;;;;;;23.10;nan;103825.06;10327412;28;20056;-73
2022/06/17 09:17:43;;;;;;;9.35;3.83;;;;;;;23.02;nan;103769.69;10330766;28;20144;-76
2022/06/17 09:23:00;;;;;;;9.50;4.18;;;;;;;22.83;nan;103675.03;10312985;28;20056;-76
2022/06/17 09:28:04;;;;;;;8.95;3.90;;;;;;;22.92;nan;103716.13;10318327;28;20084;-76
2022/06/17 09:33:33;;;;;;;10.27;3.67;;;;;;;23.22;nan;103828.75;10310609;28;20496;-74
2022/06/17 09:38:34;;;;;;;9.82;3.60;;;;;;;23.04;nan;103749.19;10317250;28;20518;-75
2022/06/17 09:43:54;;;;;;;6.65;3.80;;;;;;;23.20;nan;103801.09;10316845;28;20502;-74
2022/06/17 09:49:14;;;;;;;9.10;3.55;;;;;;;23.17;nan;103785.91;10314178;28;20080;-76
2022/06/17 09:54:27;;;;;;;8.15;3.70;;;;;;;23.51;nan;103916.41;10332952;28;20062;-77
2022/06/17 09:59:34;;;;;;;10.20;3.75;;;;;;;23.25;nan;103797.59;10311783;28;20062;-74
2022/06/17 10:04:36;;;;;;;8.05;4.07;;;;;;;23.57;nan;103921.84;10319656;28;20477;-74
2022/06/17 10:09:57;;;;;;;8.60;3.38;;;;;;;23.41;nan;103852.13;10322015;28;20580;-74
2022/06/17 10:15:11;;;;;;;10.50;3.67;;;;;;;23.55;nan;103891.53;10305377;28;20084;-75
2022/06/17 10:20:18;;;;;;;11.85;3.40;;;;;;;23.47;nan;103851.31;10321523;28;20086;-75
2022/06/17 10:25:29;;;;;;;8.95;3.60;;;;;;;23.52;nan;103864.75;10308488;28;20551;-74
2022/06/17 10:30:55;;;;;;;10.00;3.13;;;;;;;23.57;nan;103868.34;10320405;28;20047;-75
2022/06/17 10:35:57;;;;;;;6.93;3.33;;;;;;;23.54;nan;103853.19;10315953;28;20422;-74
2022/06/17 10:41:00;;;;;;;5.97;2.88;;;;;;;23.69;nan;103908.63;10314880;28;20048;-75
2022/06/17 10:46:04;;;;;;;12.00;3.40;;;;;;;23.60;nan;103857.69;10323038;28;20811;-75
2022/06/17 10:51:07;;;;;;;15.90;3.30;;;;;;;23.88;nan;103970.41;10314391;28;20082;-75
2022/06/17 10:56:18;;;;;;;7.93;3.10;;;;;;;23.98;nan;104001.75;10299309;28;20046;-75
2022/06/17 11:01:19;;;;;;;6.93;2.88;;;;;;;24.02;nan;104008.03;10314849;28;20039;-75
2022/06/17 11:06:22;;;;;;;9.18;3.00;;;;;;;23.96;nan;103976.72;10296984;28;20046;-74
2022/06/17 11:12:05;;;;;;;7.70;2.80;;;;;;;24.15;nan;104056.38;10312856;28;20057;-75
2022/06/17 11:17:15;;;;;;;9.13;2.88;;;;;;;24.26;nan;104090.41;10314341;28;20046;-74
2022/06/17 11:22:37;;;;;;;11.55;3.05;;;;;;;24.42;nan;104150.41;10307112;28;20052;-74
2022/06/17 11:27:41;;;;;;;11.45;2.83;;;;;;;24.70;nan;104258.84;10319836;28;20050;-75
2022/06/17 11:32:47;;;;;;;5.43;2.80;;;;;;;24.85;nan;104317.09;10306419;28;20053;-73
2022/06/17 11:37:51;;;;;;;7.80;3.83;;;;;;;24.92;nan;104334.13;10324964;28;20145;-76
2022/06/17 11:42:58;;;;;;;6.15;2.92;;;;;;;25.12;nan;104414.84;10314448;28;20054;-75
2022/06/17 11:48:05;;;;;;;11.70;4.07;;;;;;;24.96;nan;104333.31;10328927;28;20050;-77
2022/06/17 11:53:11;;;;;;;8.07;3.45;;;;;;;25.10;nan;104387.09;10322464;28;20042;-76
2022/06/17 11:58:17;;;;;;;7.00;3.15;;;;;;;25.02;nan;104339.63;10321704;28;20465;-75
2022/06/17 12:03:39;;;;;;;10.90;3.80;;;;;;;25.13;nan;104371.03;10316269;28;20054;-75
2022/06/17 12:08:50;;;;;;;10.60;3.55;;;;;;;24.96;nan;104298.47;10329146;28;20038;-76
2022/06/17 12:13:58;;;;;;;10.30;3.38;;;;;;;25.04;nan;104316.44;10319722;28;20039;-76
2022/06/17 12:19:00;;;;;;;7.53;2.88;;;;;;;25.16;nan;104365.72;10321231;28;20054;-76
2022/06/17 12:24:33;;;;;;;8.57;3.20;;;;;;;25.48;nan;104496.72;10333304;28;20109;-80
2022/06/17 12:29:43;;;;;;;10.02;3.67;;;;;;;25.56;nan;104520.03;10334387;28;20114;-81
2022/06/17 12:35:15;;;;;;;8.77;2.88;;;;;;;25.82;nan;104618.81;10314471;28;20059;-79
2022/06/17 12:40:45;;;;;;;10.43;3.00;;;;;;;25.79;nan;104594.59;10346681;28;20542;-79
2022/06/17 12:46:16;;;;;;;7.72;3.17;;;;;;;25.59;nan;104493.25;10340827;28;20125;-80
2022/06/17 12:57:20;;;;;;;7.53;3.28;;;;;;;25.73;nan;104532.78;10347499;28;20506;-81
2022/06/17 13:02:39;;;;;;;10.25;2.97;;;;;;;25.73;nan;104520.28;10309679;28;20041;-76
2022/06/17 13:07:52;;;;;;;7.13;3.08;;;;;;;25.88;nan;104573.25;10333143;28;20145;-77
2022/06/17 13:13:31;;;;;;;7.18;2.83;;;;;;;25.80;nan;104525.72;10327811;28;20062;-77
2022/06/17 13:18:48;;;;;;;5.03;2.20;;;;;;;25.78;nan;104504.22;10327649;28;20050;-77
2022/06/17 13:24:13;;;;;;;5.70;2.28;;;;;;;25.55;nan;104392.16;10327274;28;20050;-78
2022/06/17 13:29:30;;;;;;;5.70;2.40;;;;;;;25.52;nan;104376.03;10310687;28;20506;-75
2022/06/17 13:34:47;;;;;;;7.38;2.50;;;;;;;25.40;nan;104306.13;10315565;28;20510;-77
2022/06/17 13:40:02;;;;;;;6.45;2.50;;;;;;;25.27;nan;104234.47;10328130;28;20039;-77
2022/06/17 13:45:45;;;;;;;7.75;2.60;;;;;;;25.35;nan;104271.19;10331340;28;20051;-76
2022/06/17 13:51:19;;;;;;;6.03;2.72;;;;;;;25.45;nan;104304.41;10329760;28;20590;-75
2022/06/17 13:56:55;;;;;;;11.18;3.65;;;;;;;25.50;nan;104318.75;10326643;28;20058;-75
2022/06/17 14:02:07;;;;;;;7.93;2.70;;;;;;;25.44;nan;104269.50;10328111;28;20406;-79
2022/06/17 14:07:09;;;;;;;7.72;2.45;;;;;;;25.54;nan;104304.50;10322153;28;20054;-77
2022/06/17 14:12:58;;;;;;;7.43;2.72;;;;;;;25.31;nan;104198.75;10338120;28;20389;-77
2022/06/17 14:18:02;;;;;;;;;;;;;;;25.33;nan;104194.31;10311824;28;20136;-76
2022/06/17 14:23:25;;;;;;;6.03;1.95;;;;;;;25.60;nan;104300.97;10316568;28;19926;-73
2022/06/17 14:29:00;;;;;;;5.88;2.20;;;;;;;25.91;nan;104436.38;10323933;28;20062;-73
2022/06/17 14:34:14;;;;;;;7.60;2.42;;;;;;;25.87;nan;104402.31;10318305;28;20046;-75
2022/06/17 14:39:30;;;;;;;7.90;2.25;;;;;;;26.03;nan;104459.78;10325798;28;20045;-76
2022/06/17 14:44:34;;;;;;;6.97;2.38;;;;;;;25.90;nan;104394.28;10324362;28;20074;-74
2022/06/17 14:49:45;;;;;;;5.32;2.13;;;;;;;25.63;nan;104273.28;10317460;28;20054;-76
2022/06/17 14:55:12;;;;;;;7.45;2.88;;;;;;;25.40;nan;104159.50;10293297;28;20042;-75
2022/06/17 15:00:19;;;;;;;12.60;2.33;;;;;;;25.39;nan;104146.97;10316027;28;20047;-74
2022/06/17 15:05:31;;;;;;;6.18;2.33;;;;;;;25.32;nan;104109.38;10315561;28;20426;-74
2022/06/17 15:10:35;;;;;;;5.97;2.20;;;;;;;25.45;nan;104155.97;10297892;28;20047;-75
2022/06/17 15:15:41;;;;;;;5.93;2.05;;;;;;;25.56;nan;104198.06;10299604;28;20038;-74
2022/06/17 15:20:45;;;;;;;7.20;2.08;;;;;;;25.76;nan;104275.16;10314672;28;20066;-74
2022/06/17 15:25:56;;;;;;;4.15;1.92;;;;;;;25.81;nan;104278.78;10315939;28;20081;-74
2022/06/17 15:31:26;;;;;;;3.97;2.13;;;;;;;25.93;nan;104335.25;10315394;28;20149;-73
2022/06/17 15:36:41;;;;;;;3.70;1.90;;;;;;;25.75;nan;104238.47;10316515;28;20043;-75
2022/06/17 15:42:23;;;;;;;5.75;1.80;;;;;;;25.73;nan;104230.41;10299533;28;20477;-76
2022/06/17 15:47:27;;;;;;;5.40;1.77;;;;;;;25.85;nan;104267.19;10310828;28;20038;-74
2022/06/17 15:52:41;;;;;;;8.40;3.35;;;;;;;25.88;nan;104271.66;10316585;28;20050;-75
2022/06/17 15:57:52;;;;;;;7.65;2.05;;;;;;;26.11;nan;104357.81;10296792;28;20058;-73
2022/06/17 16:03:05;;;;;;;12.35;2.05;;;;;;;25.86;nan;104244.81;10308203;28;20430;-74
2022/06/17 16:08:14;;;;;;;5.15;1.83;;;;;;;25.69;nan;104166.88;10314720;28;20758;-76
2022/06/17 16:13:32;;;;;;;5.85;1.60;;;;;;;25.61;nan;104122.09;10301367;28;20760;-77
2022/06/17 16:18:37;;;;;;;5.68;1.83;;;;;;;25.81;nan;104203.63;10311090;28;20591;-74
2022/06/17 16:23:41;;;;;;;5.45;1.80;;;;;;;26.25;nan;104374.03;10330036;28;20038;-77
2022/06/17 16:28:44;;;;;;;5.53;2.05;;;;;;;26.03;nan;104265.53;10326232;28;20050;-76
2022/06/17 16:33:52;;;;;;;5.60;1.50;;;;;;;26.02;nan;104258.41;10308814;28;20667;-76
2022/06/17 16:38:57;;;;;;;10.13;2.00;;;;;;;26.06;nan;104266.47;10328276;28;20421;-74
2022/06/17 16:44:29;;;;;;;5.90;1.67;;;;;;;25.79;nan;104137.41;10320371;28;20065;-72
2022/06/17 16:49:37;;;;;;;7.93;1.63;;;;;;;25.61;nan;104055.00;10320719;28;20414;-72
2022/06/17 16:54:40;;;;;;;6.03;1.93;;;;;;;25.52;nan;104013.84;10314336;28;20042;-73
2022/06/17 16:59:41;;;;;;;6.57;1.63;;;;;;;25.43;nan;103967.28;10320955;28;20044;-73
2022/06/17 17:04:43;;;;;;;5.95;2.10;;;;;;;25.33;nan;103912.72;10320816;28;20062;-72
2022/06/17 17:09:45;;;;;;;5.70;1.50;;;;;;;25.20;nan;103858.97;10319286;28;20682;-74
2022/06/17 17:14:47;;;;;;;8.68;1.55;;;;;;;25.26;nan;103879.56;10319571;28;20050;-74
2022/06/17 17:19:52;;;;;;;5.05;1.88;;;;;;;25.21;nan;103844.69;10319458;28;20061;-75
2022/06/17 17:25:25;;;;;;;5.13;1.63;;;;;;;25.13;nan;103805.31;10313475;28;20520;-73
2022/06/17 17:30:29;;;;;;;6.30;1.77;;;;;;;25.13;nan;103803.56;10299942;28;20119;-73
2022/06/17 17:35:31;;;;;;;7.32;2.25;;;;;;;25.07;nan;103779.38;10318824;28;20042;-75
2022/06/17 17:40:33;;;;;;;7.22;2.38;;;;;;;24.92;nan;103696.25;10305224;28;20038;-74
2022/06/17 17:45:39;;;;;;;4.55;2.33;;;;;;;24.72;nan;103618.50;10301425;28;20101;-74
2022/06/17 17:50:42;;;;;;;9.52;2.97;;;;;;;24.72;nan;103611.34;10331972;28;20042;-73
2022/06/17 17:55:46;;;;;;;5.47;2.10;;;;;;;24.67;nan;103589.03;10318227;28;20062;-74
2022/06/17 18:00:48;;;;;;;8.52;2.00;;;;;;;24.59;nan;103548.84;10318945;28;20081;-74
2022/06/17 18:05:56;;;;;;;6.43;2.40;;;;;;;24.53;nan;103530.03;10318583;28;20129;-75
2022/06/17 18:10:59;;;;;;;5.07;2.20;;;;;;;24.47;nan;103506.81;10313788;28;20054;-75
2022/06/17 18:16:04;;;;;;;5.65;1.85;;;;;;;24.40;nan;103472.88;10328120;28;20065;-74
2022/06/17 18:21:11;;;;;;;5.60;1.75;;;;;;;24.31;nan;103430.91;10320888;28;20582;-72
2022/06/17 18:26:14;;;;;;;5.97;1.98;;;;;;;24.18;nan;103381.84;10335785;28;20090;-70
2022/06/17 18:31:16;;;;;;;8.05;2.00;;;;;;;24.05;nan;103315.81;10325650;28;20054;-71
2022/06/17 18:36:18;;;;;;;5.93;1.98;;;;;;;23.94;nan;103280.09;10339843;28;20153;-73
2022/06/17 18:46:46;;;;;;;4.13;1.60;;;;;;;23.75;nan;103194.47;10323083;28;20046;-72
2022/06/17 18:51:47;;;;;;;6.22;1.77;;;;;;;23.62;nan;103144.53;10323813;28;20085;-72
2022/06/17 18:56:49;;;;;;;8.43;1.88;;;;;;;23.51;nan;103096.44;10306538;28;20085;-71
2022/06/17 19:01:54;;;;;;;6.00;1.92;;;;;;;23.42;nan;103057.22;10303002;28;20105;-72
2022/06/17 19:06:58;;;;;;;6.85;2.00;;;;;;;23.32;nan;103028.69;10298754;28;20090;-72
2022/06/17 19:17:33;;;;;;;7.72;1.73;;;;;;;22.97;nan;102881.72;10309345;28;20058;-70
2022/06/17 19:22:37;;;;;;;5.50;1.77;;;;;;;22.81;nan;102811.44;10310659;28;20592;-73
2022/06/17 19:27:39;;;;;;;5.93;1.85;;;;;;;22.63;nan;102738.50;10293287;28;20066;-73
2022/06/17 19:32:54;;;;;;;7.07;2.30;;;;;;;22.56;nan;102710.94;10306673;28;20518;-72
2022/06/17 19:37:56;;;;;;;3.00;1.55;;;;;;;22.39;nan;102646.00;10307488;28;20423;-72
2022/06/17 19:42:58;;;;;;;3.13;1.67;;;;;;;22.23;nan;102578.41;10297398;28;20047;-71
2022/06/17 19:48:01;;;;;;;5.22;2.10;;;;;;;22.11;nan;102522.44;10296099;28;20066;-73
2022/06/17 19:53:03;;;;;;;7.75;2.03;;;;;;;21.93;nan;102457.59;10313114;28;20530;-72
2022/06/17 19:58:13;;;;;;;9.18;2.20;;;;;;;21.79;nan;102399.00;10311475;28;20100;-74
2022/06/17 20:03:19;;;;;;;7.03;2.53;;;;;;;21.58;nan;102317.34;10312231;28;20522;-72
2022/06/17 20:08:21;;;;;;;5.80;2.25;;;;;;;21.42;nan;102257.00;10318116;28;20038;-73
2022/06/17 20:13:24;;;;;;;6.25;1.98;;;;;;;21.23;nan;102177.16;10320605;28;20065;-72
2022/06/17 20:18:26;;;;;;;6.28;2.22;;;;;;;21.15;nan;102149.69;10318443;28;20130;-73
2022/06/17 20:23:29;;;;;;;9.02;2.85;;;;;;;20.93;nan;102066.38;10297766;28;20046;-73
2022/06/17 20:28:31;;;;;;;4.93;2.15;;;;;;;20.70;nan;101976.00;10300314;28;20129;-74
2022/06/17 20:33:32;;;;;;;9.52;2.20;;;;;;;20.53;nan;101915.75;10320731;28;20049;-74
2022/06/17 20:38:35;;;;;;;6.30;2.10;;;;;;;20.39;nan;101862.66;10318651;28;20781;-73
2022/06/17 20:43:42;;;;;;;5.70;2.28;;;;;;;20.27;nan;101804.22;10319824;28;20053;-73
2022/06/17 20:54:05;;;;;;;10.65;2.35;;;;;;;20.06;nan;101725.50;10318477;28;20057;-72
2022/06/17 20:59:07;;;;;;;5.90;3.03;;;;;;;19.95;nan;101694.56;10297306;28;20061;-72
2022/06/17 21:04:08;;;;;;;7.10;2.30;;;;;;;19.84;nan;101639.72;10315973;28;20406;-73
2022/06/17 21:09:16;;;;;;;4.32;2.08;;;;;;;19.71;nan;101607.00;10318049;28;20747;-74
2022/06/17 21:14:18;;;;;;;12.82;1.90;;;;;;;19.62;nan;101560.13;10314355;28;20053;-74
2022/06/17 21:19:20;;;;;;;7.38;2.28;;;;;;;19.53;nan;101534.56;10311037;28;20058;-73
2022/06/17 21:24:21;;;;;;;6.05;2.20;;;;;;;19.50;nan;101523.97;10319348;28;20066;-73
2022/06/17 21:29:23;;;;;;;6.30;1.88;;;;;;;19.49;nan;101522.19;10320052;28;20046;-74
2022/06/17 21:34:25;;;;;;;8.23;2.47;;;;;;;19.51;nan;101538.97;10320044;28;20150;-73
2022/06/17 21:39:29;;;;;;;4.43;1.98;;;;;;;19.45;nan;101514.25;10320815;28;20042;-73
2022/06/17 21:44:31;;;;;;;8.27;1.98;;;;;;;19.42;nan;101510.72;10320718;28;20763;-74
2022/06/17 21:49:33;;;;;;;7.10;2.05;;;;;;;19.40;nan;101493.06;10303649;28;20046;-74
2022/06/17 21:54:40;;;;;;;8.10;1.73;;;;;;;19.36;nan;101486.00;10321843;28;20046;-72
2022/06/17 21:59:45;;;;;;;5.43;1.85;;;;;;;19.28;nan;101459.53;10327533;28;20137;-73
2022/06/17 22:04:48;;;;;;;3.83;1.65;;;;;;;19.23;nan;101446.28;10320668;28;20050;-74
2022/06/17 22:09:52;;;;;;;4.22;2.00;;;;;;;19.13;nan;101412.75;10309796;28;20045;-74
2022/06/17 22:14:54;;;;;;;3.35;1.67;;;;;;;19.10;nan;101395.97;10327533;28;20042;-73
2022/06/17 22:19:56;;;;;;;6.20;1.80;;;;;;;19.13;nan;101410.09;10331817;28;20820;-73
2022/06/17 22:24:59;;;;;;;4.00;1.85;;;;;;;19.09;nan;101397.72;10325310;28;20042;-74
2022/06/17 22:30:01;;;;;;;10.52;2.00;;;;;;;19.07;nan;101391.56;10329697;28;20693;-74
2022/06/17 22:35:10;;;;;;;5.13;1.85;;;;;;;19.04;nan;101387.16;10338827;28;20540;-75
2022/06/17 22:40:16;;;;;;;5.25;1.73;;;;;;;19.01;nan;101375.69;10344333;28;20430;-74
2022/06/17 22:45:19;;;;;;;7.63;1.80;;;;;;;18.87;nan;101320.97;10337417;28;20145;-74
2022/06/17 22:50:25;;;;;;;4.30;1.77;;;;;;;18.83;nan;101305.94;10333264;28;20034;-74
2022/06/17 22:55:28;;;;;;;5.85;1.92;;;;;;;18.81;nan;101307.72;10325449;28;20050;-73
2022/06/17 23:00:30;;;;;;;4.30;1.77;;;;;;;18.74;nan;101271.53;10322530;28;20395;-73
2022/06/17 23:05:32;;;;;;;4.85;1.90;;;;;;;18.71;nan;101266.25;10329552;28;20136;-73
2022/06/17 23:10:37;;;;;;;2.60;1.70;;;;;;;18.61;nan;101236.28;10327181;28;20054;-74
2022/06/17 23:15:39;;;;;;;4.65;1.70;;;;;;;18.54;nan;101206.28;10325949;28;20544;-74
2022/06/17 23:20:41;;;;;;;4.50;1.63;;;;;;;18.47;nan;101178.06;10326975;28;20050;-74
2022/06/17 23:25:42;;;;;;;3.85;1.80;;;;;;;18.42;nan;101158.69;10313906;28;20683;-73
2022/06/17 23:30:45;;;;;;;6.30;1.90;;;;;;;18.38;nan;101147.22;10326764;28;20057;-73
2022/06/17 23:35:49;;;;;;;5.40;2.10;;;;;;;18.37;nan;101149.88;10327831;28;20038;-73
2022/06/17 23:40:50;;;;;;;7.53;1.90;;;;;;;18.28;nan;101121.69;10325064;28;20052;-73
2022/06/17 23:45:54;;;;;;;7.38;2.15;;;;;;;18.22;nan;101091.72;10314538;28;20077;-73
2022/06/17 23:51:00;;;;;;;4.60;1.75;;;;;;;18.18;nan;101083.81;10313594;28;20062;-74
2022/06/17 23:56:04;;;;;;;4.03;1.98;;;;;;;18.13;nan;101064.41;10314763;28;20144;-73
